Time;durP1;ratioP1;P1;durP2;ratioP2;P2;SDS_P1;SDS_P2;PMS_P1;PMS_P2;Temp;Humidity;BMP_temperature;BMP_pressure;BME280_temperature;BME280_humidity;BME280_pressure;Samples;Min_cycle;Max_cycle;Signal;HPM_P1;HPM_P2
2023/10/15 00:01:05;;;;;;;5.35;2.42;;;11.00;95.10;;;;;;5035436;28;20608;-87
2023/10/15 00:03:33;;;;;;;8.23;2.50;;;11.10;94.50;;;;;;5034196;28;20222;-87
2023/10/15 00:06:00;;;;;;;6.18;2.20;;;11.10;94.50;;;;;;5034683;28;20271;-86
2023/10/15 00:08:27;;;;;;;5.93;2.42;;;11.10;93.50;;;;;;5032055;28;20230;-87
2023/10/15 00:10:55;;;;;;;6.13;2.35;;;11.10;94.10;;;;;;5052949;28;20206;-87
2023/10/15 00:13:22;;;;;;;6.30;2.38;;;11.10;94.50;;;;;;5048780;28;20209;-87
2023/10/15 00:15:51;;;;;;;5.97;2.25;;;11.10;94.10;;;;;;5051899;28;20665;-87
2023/10/15 00:18:18;;;;;;;6.07;2.38;;;11.00;94.50;;;;;;5050959;28;20221;-87
2023/10/15 00:20:47;;;;;;;5.78;2.10;;;11.00;94.20;;;;;;5050728;28;20206;-87
2023/10/15 00:23:14;;;;;;;7.00;2.65;;;11.10;93.90;;;;;;5051922;28;20288;-87
2023/10/15 00:25:47;;;;;;;5.85;2.33;;;11.00;94.20;;;;;;5051987;28;20561;-87
2023/10/15 00:28:17;;;;;;;6.13;2.30;;;11.00;94.50;;;;;;5052670;28;20194;-87
2023/10/15 00:30:45;;;;;;;7.07;2.45;;;11.20;93.60;;;;;;5050966;28;20281;-87
2023/10/15 00:33:12;;;;;;;5.35;2.33;;;11.30;93.50;;;;;;5053198;28;20202;-87
2023/10/15 00:35:44;;;;;;;3.40;2.00;;;11.50;93.40;;;;;;5052762;28;20202;-87
2023/10/15 00:38:16;;;;;;;5.22;2.35;;;11.40;93.10;;;;;;5018659;28;20202;-87
2023/10/15 00:40:45;;;;;;;3.78;2.00;;;11.30;92.70;;;;;;5046332;28;20658;-87
2023/10/15 00:43:15;;;;;;;7.28;2.97;;;11.30;93.20;;;;;;5039050;28;20225;-87
2023/10/15 00:45:44;;;;;;;9.70;2.35;;;11.00;93.80;;;;;;5053017;28;20201;-86
2023/10/15 00:48:22;;;;;;;7.45;2.20;;;11.00;93.50;;;;;;5035038;28;20194;-87
2023/10/15 00:50:51;;;;;;;5.05;2.00;;;10.90;93.90;;;;;;5046538;28;20213;-87
2023/10/15 00:53:22;;;;;;;5.47;2.78;;;11.00;93.90;;;;;;5027094;28;20210;-87
2023/10/15 00:55:54;;;;;;;8.15;2.13;;;11.00;92.90;;;;;;5036122;28;20214;-87
2023/10/15 00:58:33;;;;;;;5.18;2.28;;;10.90;93.20;;;;;;5052335;28;20198;-87
2023/10/15 01:01:19;;;;;;;6.57;2.13;;;10.80;93.40;;;;;;5051373;28;20190;-87
2023/10/15 01:03:52;;;;;;;5.10;2.20;;;10.70;93.00;;;;;;5050195;28;20267;-87
2023/10/15 01:06:26;;;;;;;4.18;2.00;;;10.90;93.10;;;;;;5048826;28;20220;-87
2023/10/15 01:08:53;;;;;;;7.40;2.17;;;10.80;92.70;;;;;;5049626;28;20194;-87
2023/10/15 01:11:20;;;;;;;6.93;2.38;;;10.70;93.50;;;;;;5051220;28;20198;-87
2023/10/15 01:13:47;;;;;;;8.38;2.38;;;10.70;92.50;;;;;;5050124;28;20216;-87
2023/10/15 01:16:17;;;;;;;7.15;2.63;;;10.70;92.70;;;;;;5048836;28;20213;-87
2023/10/15 01:18:45;;;;;;;7.38;2.20;;;10.70;92.50;;;;;;5041198;28;20572;-87
2023/10/15 01:21:16;;;;;;;8.25;2.17;;;10.80;92.20;;;;;;5048352;28;20289;-87
2023/10/15 01:23:58;;;;;;;5.75;2.00;;;10.90;92.70;;;;;;5049339;28;20226;-87
2023/10/15 01:26:27;;;;;;;7.53;2.13;;;10.80;93.10;;;;;;5043114;28;20197;-87
2023/10/15 01:28:54;;;;;;;7.70;2.35;;;10.80;92.30;;;;;;5051547;28;20198;-87
2023/10/15 01:31:24;;;;;;;4.25;1.90;;;10.80;92.10;;;;;;5038193;28;20198;-87
2023/10/15 01:33:52;;;;;;;4.32;2.10;;;10.80;92.80;;;;;;5034533;28;20230;-87
2023/10/15 01:36:21;;;;;;;5.70;2.00;;;10.70;92.90;;;;;;5050820;28;20193;-87
2023/10/15 01:38:51;;;;;;;3.97;2.00;;;10.60;92.80;;;;;;5050848;28;20202;-87
2023/10/15 01:41:19;;;;;;;6.63;2.35;;;10.60;92.90;;;;;;5033591;28;20260;-87
2023/10/15 01:43:49;;;;;;;5.43;2.13;;;10.70;92.30;;;;;;5047105;28;20222;-87
2023/10/15 01:46:39;;;;;;;5.32;1.95;;;10.80;91.90;;;;;;5033114;28;20198;-87
2023/10/15 01:49:07;;;;;;;8.45;2.15;;;10.70;92.40;;;;;;5052013;28;20190;-87
2023/10/15 01:51:39;;;;;;;6.90;1.80;;;10.60;92.10;;;;;;5048281;28;20263;-87
2023/10/15 01:54:09;;;;;;;5.22;2.80;;;10.80;91.60;;;;;;5035918;28;20605;-87
2023/10/15 01:56:36;;;;;;;5.32;1.95;;;10.70;91.60;;;;;;5028683;28;20263;-87
2023/10/15 01:59:08;;;;;;;3.42;1.80;;;10.70;91.90;;;;;;5051382;28;20194;-87
2023/10/15 02:01:40;;;;;;;5.90;2.00;;;10.70;92.00;;;;;;5050982;28;20601;-87
2023/10/15 02:04:09;;;;;;;7.88;2.00;;;10.60;92.10;;;;;;5050639;28;20275;-87
2023/10/15 02:06:43;;;;;;;3.90;1.90;;;10.50;92.10;;;;;;5039035;28;20281;-87
2023/10/15 02:09:12;;;;;;;7.93;2.20;;;10.60;91.80;;;;;;5049474;28;20196;-86
2023/10/15 02:11:47;;;;;;;7.88;2.20;;;10.40;92.10;;;;;;5042951;28;20201;-87
2023/10/15 02:14:21;;;;;;;4.72;1.92;;;10.30;92.00;;;;;;5050387;28;20724;-86
2023/10/15 02:16:50;;;;;;;4.65;2.05;;;10.20;92.50;;;;;;5055093;28;20194;-87
2023/10/15 02:19:19;;;;;;;6.45;2.17;;;10.10;92.60;;;;;;5045320;28;20654;-87
2023/10/15 02:21:50;;;;;;;8.65;2.30;;;10.20;92.60;;;;;;5051179;28;20287;-87
2023/10/15 02:24:17;;;;;;;5.78;1.92;;;10.20;93.10;;;;;;5051935;28;20240;-86
2023/10/15 02:26:44;;;;;;;7.03;1.88;;;10.10;92.50;;;;;;5044329;28;20216;-87
2023/10/15 02:29:27;;;;;;;6.13;1.92;;;10.00;92.70;;;;;;5049574;28;20193;-87
2023/10/15 02:31:58;;;;;;;8.18;2.17;;;10.00;92.70;;;;;;5051199;28;20276;-87
2023/10/15 02:34:27;;;;;;;5.50;1.70;;;10.00;92.40;;;;;;5051198;28;20198;-86
2023/10/15 02:37:01;;;;;;;5.25;2.20;;;10.00;92.30;;;;;;5038048;28;20210;-87
2023/10/15 02:39:35;;;;;;;6.60;2.30;;;10.20;93.20;;;;;;5052159;28;20206;-86
2023/10/15 02:42:02;;;;;;;5.25;2.08;;;10.40;92.20;;;;;;5037551;28;20193;-87
2023/10/15 02:44:32;;;;;;;4.85;1.70;;;10.30;92.60;;;;;;5044765;28;20205;-87
2023/10/15 02:47:10;;;;;;;6.63;1.73;;;10.30;92.00;;;;;;5054163;28;20197;-87
2023/10/15 02:49:51;;;;;;;7.40;1.90;;;10.40;91.50;;;;;;5023452;28;20599;-87
2023/10/15 02:52:19;;;;;;;5.60;2.08;;;10.60;91.80;;;;;;5047351;28;20223;-86
2023/10/15 02:54:46;;;;;;;4.38;1.52;;;10.60;90.90;;;;;;5046877;28;20206;-87
2023/10/15 02:57:16;;;;;;;5.60;1.90;;;10.50;91.70;;;;;;5031798;28;20806;-87
2023/10/15 02:59:50;;;;;;;6.22;2.05;;;10.40;91.30;;;;;;5045500;28;20203;-87
2023/10/15 03:02:19;;;;;;;6.32;2.42;;;10.30;91.50;;;;;;5044777;28;20221;-87
2023/10/15 03:04:52;;;;;;;6.85;1.92;;;10.30;91.60;;;;;;5049050;28;20287;-86
2023/10/15 03:07:25;;;;;;;4.00;2.08;;;10.20;91.60;;;;;;5036000;28;21810;-87
2023/10/15 03:09:56;;;;;;;3.35;1.70;;;10.20;91.80;;;;;;5035302;28;20210;-87
2023/10/15 03:12:24;;;;;;;7.25;2.25;;;10.10;92.00;;;;;;5032512;28;20251;-87
2023/10/15 03:14:51;;;;;;;4.75;1.90;;;10.20;92.60;;;;;;5050972;28;20202;-87
2023/10/15 03:17:25;;;;;;;5.32;2.03;;;10.10;92.00;;;;;;5024193;28;20211;-87
2023/10/15 03:19:54;;;;;;;6.18;1.90;;;10.10;92.10;;;;;;5052797;28;20734;-87
2023/10/15 03:22:23;;;;;;;5.45;2.10;;;10.30;91.80;;;;;;5035169;28;20216;-86
2023/10/15 03:24:53;;;;;;;4.70;1.98;;;10.30;91.50;;;;;;5053512;28;20256;-87
2023/10/15 03:27:23;;;;;;;6.97;1.73;;;10.40;91.10;;;;;;5053316;28;20190;-86
2023/10/15 03:29:56;;;;;;;4.57;1.95;;;10.30;92.00;;;;;;5054242;28;20225;-86
2023/10/15 03:32:31;;;;;;;5.00;1.60;;;10.30;91.80;;;;;;5034768;28;20198;-87
2023/10/15 03:35:05;;;;;;;3.92;1.60;;;10.20;91.50;;;;;;5054423;28;20208;-86
2023/10/15 03:37:32;;;;;;;5.68;1.80;;;10.30;91.60;;;;;;5054538;28;20190;-87
2023/10/15 03:39:59;;;;;;;6.63;1.73;;;10.30;91.60;;;;;;5036559;28;20205;-87
2023/10/15 03:42:28;;;;;;;8.23;1.80;;;10.40;91.20;;;;;;5030787;28;20297;-86
2023/10/15 03:45:00;;;;;;;5.63;2.20;;;10.30;90.90;;;;;;5053014;28;20563;-87
2023/10/15 03:47:28;;;;;;;5.50;1.80;;;10.40;91.00;;;;;;5051579;28;20208;-87
2023/10/15 03:49:56;;;;;;;6.93;1.90;;;10.40;90.70;;;;;;5051794;28;20205;-87
2023/10/15 03:52:26;;;;;;;10.30;1.63;;;10.30;90.40;;;;;;5053624;28;20565;-86
2023/10/15 03:54:55;;;;;;;6.68;1.80;;;10.10;91.00;;;;;;5051649;28;20210;-87
2023/10/15 03:57:26;;;;;;;5.55;1.80;;;10.10;91.80;;;;;;5049685;28;20209;-86
2023/10/15 03:59:55;;;;;;;5.55;1.70;;;10.00;91.10;;;;;;5037639;28;20283;-86
2023/10/15 04:02:29;;;;;;;4.53;1.92;;;10.10;91.50;;;;;;5051919;28;20563;-87
2023/10/15 04:05:07;;;;;;;4.13;1.75;;;10.00;91.70;;;;;;5049392;28;20218;-87
2023/10/15 04:07:38;;;;;;;4.95;1.70;;;9.90;92.40;;;;;;5051731;28;20201;-87
2023/10/15 04:10:06;;;;;;;4.35;1.60;;;9.90;92.80;;;;;;5035094;28;20208;-86
2023/10/15 04:12:35;;;;;;;4.90;1.60;;;9.90;92.50;;;;;;5049646;28;20199;-87
2023/10/15 04:15:03;;;;;;;5.53;1.70;;;9.90;92.00;;;;;;5051665;28;20678;-87
2023/10/15 04:17:31;;;;;;;10.50;1.85;;;9.90;92.10;;;;;;5053354;28;20198;-86
2023/10/15 04:20:00;;;;;;;3.28;1.75;;;9.80;92.60;;;;;;5053511;28;20198;-87
2023/10/15 04:22:26;;;;;;;4.10;1.80;;;10.00;92.30;;;;;;5047230;28;20212;-87
2023/10/15 04:24:53;;;;;;;5.72;1.85;;;10.10;91.60;;;;;;5038411;28;20213;-87
2023/10/15 04:27:24;;;;;;;4.45;1.67;;;10.20;91.40;;;;;;5052723;28;20658;-86
2023/10/15 04:29:53;;;;;;;4.72;1.70;;;10.20;91.30;;;;;;5036431;28;20236;-86
2023/10/15 04:32:28;;;;;;;6.60;2.20;;;10.00;91.70;;;;;;5052570;28;20564;-87
2023/10/15 04:34:56;;;;;;;6.32;2.03;;;9.90;92.50;;;;;;5050580;28;20212;-85
2023/10/15 04:37:26;;;;;;;5.13;2.03;;;9.90;92.80;;;;;;5052536;28;20193;-86
2023/10/15 04:39:55;;;;;;;5.65;1.80;;;9.90;93.10;;;;;;5052730;28;20190;-86
2023/10/15 04:42:28;;;;;;;4.47;1.95;;;9.80;93.40;;;;;;5052620;28;20946;-86
2023/10/15 04:44:55;;;;;;;5.15;1.80;;;9.90;92.90;;;;;;5051765;28;20275;-86
2023/10/15 04:47:28;;;;;;;7.18;1.95;;;9.70;93.40;;;;;;5050730;28;20578;-86
2023/10/15 04:49:57;;;;;;;6.15;1.80;;;9.70;93.50;;;;;;5053105;28;20202;-86
2023/10/15 04:52:26;;;;;;;5.28;1.90;;;9.60;94.40;;;;;;5046972;28;20233;-87
2023/10/15 04:54:55;;;;;;;3.15;1.60;;;9.70;94.20;;;;;;5052336;28;20701;-87
2023/10/15 04:57:23;;;;;;;3.72;1.75;;;9.80;93.40;;;;;;5045020;28;20575;-86
2023/10/15 04:59:50;;;;;;;5.60;1.90;;;9.60;93.40;;;;;;5053040;28;20216;-87
2023/10/15 05:02:18;;;;;;;4.03;1.90;;;9.40;94.00;;;;;;5051869;28;20550;-86
2023/10/15 05:04:45;;;;;;;4.55;1.77;;;9.30;94.70;;;;;;5047420;28;20280;-86
2023/10/15 05:07:15;;;;;;;6.78;2.10;;;9.20;95.00;;;;;;5032785;28;20210;-86
2023/10/15 05:09:44;;;;;;;6.15;1.75;;;9.10;95.60;;;;;;5051988;28;20264;-87
2023/10/15 05:12:12;;;;;;;6.38;2.00;;;9.10;94.90;;;;;;5046336;28;20281;-86
2023/10/15 05:14:39;;;;;;;6.68;2.20;;;9.10;95.20;;;;;;5045390;28;20236;-86
2023/10/15 05:17:06;;;;;;;4.50;1.85;;;9.10;95.00;;;;;;5049121;28;20198;-86
2023/10/15 05:19:32;;;;;;;6.70;1.92;;;9.00;95.00;;;;;;5041515;28;20209;-86
2023/10/15 05:21:59;;;;;;;5.80;1.80;;;9.00;95.30;;;;;;5052168;28;20198;-86
2023/10/15 05:24:26;;;;;;;2.50;1.60;;;9.00;95.50;;;;;;5051591;28;20221;-86
2023/10/15 05:26:54;;;;;;;4.93;1.65;;;9.00;95.90;;;;;;5046209;28;20198;-86
2023/10/15 05:29:23;;;;;;;5.57;2.00;;;9.10;95.90;;;;;;5034036;28;20206;-86
2023/10/15 05:31:50;;;;;;;8.07;2.10;;;9.30;96.00;;;;;;5051243;28;20198;-87
2023/10/15 05:34:17;;;;;;;9.75;2.17;;;9.40;94.90;;;;;;5049275;28;20198;-87
2023/10/15 05:36:44;;;;;;;3.85;1.65;;;9.30;94.70;;;;;;5027792;28;20217;-87
2023/10/15 05:39:15;;;;;;;5.60;2.15;;;9.20;95.50;;;;;;5034069;28;20239;-87
2023/10/15 05:41:42;;;;;;;6.75;1.63;;;9.20;95.90;;;;;;5046274;28;20205;-85
2023/10/15 05:44:10;;;;;;;4.43;1.90;;;9.20;95.90;;;;;;5039828;28;20226;-86
2023/10/15 05:46:37;;;;;;;5.63;1.65;;;9.20;95.90;;;;;;5050581;28;20198;-87
2023/10/15 05:49:05;;;;;;;2.95;1.40;;;9.40;96.00;;;;;;5051456;28;20205;-86
2023/10/15 05:51:32;;;;;;;4.55;1.63;;;9.40;95.60;;;;;;5049078;28;20218;-86
2023/10/15 05:53:59;;;;;;;7.05;2.03;;;9.30;95.40;;;;;;5046856;28;20237;-87
2023/10/15 05:56:28;;;;;;;4.57;1.73;;;9.40;95.30;;;;;;5031802;28;20217;-86
2023/10/15 05:58:55;;;;;;;4.13;2.10;;;9.30;95.20;;;;;;5050492;28;20293;-86
2023/10/15 06:01:23;;;;;;;6.03;2.20;;;9.50;95.30;;;;;;5046456;28;20201;-86
2023/10/15 06:03:50;;;;;;;11.00;1.92;;;9.60;94.80;;;;;;5050733;28;20702;-86
2023/10/15 06:06:17;;;;;;;6.32;1.95;;;9.60;94.20;;;;;;5011222;28;20288;-86
2023/10/15 06:08:45;;;;;;;6.53;1.73;;;9.70;94.70;;;;;;5032661;28;20642;-87
2023/10/15 06:11:12;;;;;;;7.40;2.00;;;9.70;94.10;;;;;;5048269;28;20559;-86
2023/10/15 06:13:39;;;;;;;4.85;1.88;;;9.80;94.00;;;;;;5049585;28;20205;-86
2023/10/15 06:16:08;;;;;;;4.93;1.90;;;9.80;94.10;;;;;;5028625;28;20616;-87
2023/10/15 06:18:36;;;;;;;6.68;2.00;;;9.90;94.00;;;;;;5051470;28;20560;-87
2023/10/15 06:21:04;;;;;;;5.03;2.00;;;9.90;93.40;;;;;;5046702;28;20570;-86
2023/10/15 06:23:32;;;;;;;6.72;1.90;;;9.90;93.40;;;;;;5032101;28;20248;-87
2023/10/15 06:25:59;;;;;;;5.18;1.77;;;9.80;93.70;;;;;;5049061;28;20598;-87
2023/10/15 06:28:25;;;;;;;4.03;2.00;;;9.80;93.50;;;;;;5034735;28;20193;-87
2023/10/15 06:30:52;;;;;;;6.15;1.50;;;9.90;93.60;;;;;;5050941;28;20670;-87
2023/10/15 06:33:19;;;;;;;5.40;2.15;;;9.90;93.30;;;;;;5037204;28;20260;-87
2023/10/15 06:35:47;;;;;;;4.25;1.67;;;10.00;92.70;;;;;;5050215;28;20586;-87
2023/10/15 06:38:17;;;;;;;5.95;2.10;;;10.10;91.50;;;;;;5049059;28;20197;-87
2023/10/15 06:40:44;;;;;;;4.10;1.85;;;10.30;90.40;;;;;;5035603;28;20210;-86
2023/10/15 06:43:11;;;;;;;7.43;1.83;;;10.20;91.00;;;;;;5044923;28;20233;-86
2023/10/15 06:45:38;;;;;;;4.50;1.85;;;10.20;91.50;;;;;;5035693;28;20271;-86
2023/10/15 06:48:06;;;;;;;4.25;1.73;;;10.40;90.70;;;;;;5027916;28;20209;-86
2023/10/15 06:50:33;;;;;;;7.35;1.88;;;10.60;90.20;;;;;;5050715;28;20204;-85
2023/10/15 06:53:05;;;;;;;5.85;1.92;;;10.60;88.90;;;;;;5047652;28;20285;-85
2023/10/15 06:55:33;;;;;;;4.80;1.88;;;10.40;90.40;;;;;;5046047;28;20304;-86
2023/10/15 06:58:01;;;;;;;6.55;1.50;;;10.20;91.10;;;;;;5057005;28;20194;-85
2023/10/15 07:00:31;;;;;;;4.80;1.65;;;10.10;90.80;;;;;;5049246;28;20260;-85
2023/10/15 07:02:58;;;;;;;5.22;1.88;;;10.10;91.10;;;;;;5050480;28;20190;-86
2023/10/15 07:05:25;;;;;;;8.20;1.92;;;10.20;91.30;;;;;;5047214;28;20225;-86
2023/10/15 07:07:53;;;;;;;4.90;1.63;;;10.40;90.40;;;;;;5055187;28;20285;-86
2023/10/15 07:10:21;;;;;;;3.50;1.60;;;10.50;90.70;;;;;;5016896;28;20205;-88
2023/10/15 07:12:50;;;;;;;8.38;2.08;;;10.70;90.10;;;;;;5045748;28;20217;-84
2023/10/15 07:15:20;;;;;;;6.40;2.30;;;10.90;89.70;;;;;;5051415;28;20740;-87
2023/10/15 07:17:49;;;;;;;5.10;1.80;;;11.20;86.00;;;;;;5036901;28;20210;-88
2023/10/15 07:20:18;;;;;;;6.72;1.75;;;11.40;86.00;;;;;;5049281;28;20205;-89
2023/10/15 07:22:46;;;;;;;3.97;1.80;;;11.60;84.30;;;;;;5053923;28;20258;-89
2023/10/15 07:25:14;;;;;;;6.22;1.92;;;11.80;82.20;;;;;;5055647;28;20226;-89
2023/10/15 07:27:44;;;;;;;7.28;1.50;;;11.80;81.80;;;;;;5045163;28;20206;-89
2023/10/15 07:30:13;;;;;;;3.10;1.50;;;12.10;77.40;;;;;;5038950;28;20197;-88
2023/10/15 07:32:41;;;;;;;3.80;1.50;;;12.20;75.40;;;;;;5045332;28;20202;-89
2023/10/15 07:35:11;;;;;;;3.97;1.40;;;12.10;77.80;;;;;;5038865;28;20198;-86
2023/10/15 07:37:40;;;;;;;3.83;1.40;;;12.00;77.10;;;;;;5054260;28;20197;-88
2023/10/15 07:40:14;;;;;;;4.95;1.42;;;11.80;77.50;;;;;;5037358;28;20233;-89
2023/10/15 07:42:42;;;;;;;3.03;1.42;;;11.90;78.70;;;;;;5050747;28;20634;-88
2023/10/15 07:45:10;;;;;;;3.13;1.50;;;12.00;75.20;;;;;;5059185;28;20218;-86
2023/10/15 07:47:37;;;;;;;6.15;1.52;;;12.00;75.20;;;;;;5042357;28;20198;-86
2023/10/15 07:50:06;;;;;;;4.25;1.45;;;11.90;77.40;;;;;;5052473;28;20673;-86
2023/10/15 07:52:33;;;;;;;3.83;1.25;;;11.70;75.00;;;;;;5053978;28;20229;-86
2023/10/15 07:54:59;;;;;;;3.78;1.60;;;11.50;79.30;;;;;;5056634;28;20210;-86
2023/10/15 07:57:31;;;;;;;7.10;1.60;;;11.50;80.20;;;;;;5050239;28;20255;-86
2023/10/15 07:59:59;;;;;;;3.63;1.58;;;11.50;78.60;;;;;;5050304;28;20186;-84
2023/10/15 08:02:28;;;;;;;4.65;1.63;;;11.50;79.70;;;;;;5049812;28;20206;-84
2023/10/15 08:04:56;;;;;;;3.38;1.45;;;11.40;80.30;;;;;;5039182;28;20221;-86
2023/10/15 08:07:23;;;;;;;4.13;1.58;;;11.30;80.50;;;;;;5057463;28;20194;-88
2023/10/15 08:09:54;;;;;;;2.58;1.70;;;11.50;74.70;;;;;;5031526;28;20206;-86
2023/10/15 08:12:25;;;;;;;3.35;1.48;;;11.50;77.10;;;;;;5033413;28;20208;-85
2023/10/15 08:14:54;;;;;;;5.53;1.60;;;11.50;79.40;;;;;;5053910;28;20666;-86
2023/10/15 08:17:33;;;;;;;3.25;1.50;;;11.70;76.70;;;;;;5051623;28;20240;-86
2023/10/15 08:22:45;;;;;;;3.90;1.70;;;11.90;75.10;;;;;;5048361;28;20206;-86
2023/10/15 08:25:14;;;;;;;3.40;1.60;;;11.80;73.80;;;;;;5046701;28;20225;-86
2023/10/15 08:27:41;;;;;;;4.70;1.60;;;11.80;75.00;;;;;;5048521;28;20205;-87
2023/10/15 08:30:12;;;;;;;5.28;1.90;;;11.70;75.90;;;;;;5048699;28;20198;-87
2023/10/15 08:32:41;;;;;;;4.07;1.50;;;11.70;76.70;;;;;;5031218;28;20201;-88
2023/10/15 08:35:09;;;;;;;3.75;1.63;;;11.60;76.00;;;;;;5047070;28;20202;-86
2023/10/15 08:37:36;;;;;;;3.45;1.42;;;11.60;74.90;;;;;;5046911;28;20198;-87
2023/10/15 08:40:04;;;;;;;3.63;1.50;;;11.60;75.90;;;;;;5050460;28;20208;-88
2023/10/15 08:42:38;;;;;;;3.42;1.52;;;11.70;77.70;;;;;;5040970;28;20239;-87
2023/10/15 08:45:07;;;;;;;2.22;1.45;;;11.70;77.10;;;;;;5035245;28;20226;-88
2023/10/15 08:47:34;;;;;;;4.70;1.67;;;11.60;78.40;;;;;;5028237;28;20234;-87
2023/10/15 08:50:03;;;;;;;5.80;1.50;;;11.40;78.50;;;;;;5036089;28;20202;-87
2023/10/15 08:55:57;;;;;;;4.95;1.60;;;11.30;83.20;;;;;;5058938;28;20595;-90
2023/10/15 08:58:26;;;;;;;3.70;1.60;;;11.20;85.00;;;;;;5037376;28;20208;-87
2023/10/15 09:00:57;;;;;;;6.38;1.88;;;11.10;87.80;;;;;;5054576;28;20585;-91
2023/10/15 09:03:25;;;;;;;4.60;1.50;;;11.00;89.50;;;;;;5056816;28;20195;-87
2023/10/15 09:05:53;;;;;;;3.60;1.20;;;10.80;82.50;;;;;;5044540;28;20233;-87
2023/10/15 09:08:22;;;;;;;2.05;0.93;;;10.30;87.00;;;;;;5052409;28;20194;-87
2023/10/15 09:10:52;;;;;;;2.08;0.90;;;9.80;90.60;;;;;;5050806;28;20209;-85
2023/10/15 09:13:21;;;;;;;2.47;1.10;;;9.30;93.00;;;;;;5037598;28;20284;-86
2023/10/15 09:15:49;;;;;;;1.88;1.10;;;8.90;95.70;;;;;;5034854;28;20256;-86
2023/10/15 09:18:17;;;;;;;2.17;1.00;;;8.60;95.90;;;;;;5050028;28;20206;-86
2023/10/15 09:20:45;;;;;;;2.42;1.20;;;8.40;97.80;;;;;;5051311;28;20208;-85
2023/10/15 09:23:14;;;;;;;3.97;1.42;;;8.40;98.50;;;;;;5032899;28;20204;-86
2023/10/15 09:25:42;;;;;;;2.08;1.10;;;8.30;99.80;;;;;;5050569;28;20229;-86
2023/10/15 09:28:09;;;;;;;4.07;1.83;;;8.60;99.90;;;;;;5047436;28;20198;-86
2023/10/15 09:30:36;;;;;;;7.00;3.45;;;8.70;99.10;;;;;;5047466;28;20208;-86
2023/10/15 09:33:08;;;;;;;4.18;1.60;;;8.70;98.80;;;;;;5029060;28;20205;-86
2023/10/15 09:35:39;;;;;;;3.38;2.70;;;8.70;99.00;;;;;;5043662;28;20663;-87
2023/10/15 09:38:13;;;;;;;2.42;1.23;;;8.80;99.50;;;;;;5049743;28;20198;-87
2023/10/15 09:40:43;;;;;;;2.67;1.52;;;8.80;99.00;;;;;;5049730;28;20193;-86
2023/10/15 09:43:12;;;;;;;2.25;1.77;;;8.90;98.80;;;;;;5036787;28;20199;-86
2023/10/15 09:45:41;;;;;;;1.83;1.10;;;9.10;98.90;;;;;;5050975;28;20218;-86
2023/10/15 09:48:10;;;;;;;1.67;1.23;;;9.20;98.80;;;;;;5049626;28;20204;-86
2023/10/15 09:50:39;;;;;;;2.53;1.30;;;9.20;98.40;;;;;;5046767;28;20217;-86
2023/10/15 09:53:10;;;;;;;3.05;1.77;;;9.20;99.00;;;;;;5035813;28;20204;-87
2023/10/15 09:55:38;;;;;;;2.25;1.25;;;9.40;99.20;;;;;;5034981;28;20209;-87
2023/10/15 09:58:09;;;;;;;1.77;1.35;;;9.50;97.90;;;;;;5047164;28;20285;-86
2023/10/15 10:00:59;;;;;;;3.55;1.35;;;9.70;98.50;;;;;;5026508;28;20289;-86
2023/10/15 10:03:59;;;;;;;2.47;1.70;;;9.70;98.70;;;;;;5049927;28;20197;-87
2023/10/15 10:06:43;;;;;;;1.65;1.30;;;10.40;97.70;;;;;;5038249;28;20338;-86
2023/10/15 10:09:36;;;;;;;2.03;1.70;;;10.70;96.30;;;;;;5048839;28;20198;-86
2023/10/15 10:12:17;;;;;;;1.90;1.77;;;10.70;95.90;;;;;;5050767;28;20198;-87
2023/10/15 10:17:46;;;;;;;2.22;1.83;;;10.70;95.90;;;;;;5049972;28;20233;-90
2023/10/15 10:20:19;;;;;;;3.25;1.67;;;10.70;95.90;;;;;;5050746;28;20202;-90
2023/10/15 10:22:57;;;;;;;2.55;1.25;;;10.80;95.60;;;;;;5047106;28;20581;-90
2023/10/15 10:28:14;;;;;;;2.88;2.00;;;10.50;94.90;;;;;;5048149;28;20666;-90
2023/10/15 10:31:04;;;;;;;3.10;2.17;;;10.70;95.90;;;;;;5050391;28;20212;-89
2023/10/15 10:34:03;;;;;;;3.00;1.30;;;11.00;95.60;;;;;;5031845;28;20239;-88
2023/10/15 10:36:37;;;;;;;6.15;5.35;;;11.10;94.90;;;;;;4966357;28;20212;-88
2023/10/15 10:39:13;;;;;;;6.78;5.20;;;11.20;94.20;;;;;;5033165;28;20229;-87
2023/10/15 10:41:41;;;;;;;7.28;5.32;;;11.30;94.20;;;;;;5047625;28;20194;-91
2023/10/15 10:44:10;;;;;;;11.02;8.57;;;11.10;94.50;;;;;;5049523;28;20728;-87
2023/10/15 10:46:45;;;;;;;6.30;5.35;;;11.30;94.70;;;;;;5048639;28;20224;-86
2023/10/15 10:49:17;;;;;;;2.15;1.83;;;11.20;94.40;;;;;;5051849;28;20280;-86
2023/10/15 10:51:44;;;;;;;2.45;1.65;;;11.10;93.40;;;;;;5026931;28;20218;-85
2023/10/15 10:54:27;;;;;;;6.20;4.05;;;10.90;93.20;;;;;;5031970;28;20289;-85
2023/10/15 10:57:03;;;;;;;7.95;3.78;;;10.90;93.10;;;;;;5050109;28;20220;-87
2023/10/15 10:59:31;;;;;;;3.28;1.35;;;11.00;93.90;;;;;;5039070;28;20205;-87
2023/10/15 11:02:00;;;;;;;8.20;4.85;;;10.90;93.50;;;;;;5054883;28;20198;-87
2023/10/15 11:04:27;;;;;;;3.67;2.08;;;10.80;95.10;;;;;;5035594;28;20621;-87
2023/10/15 11:06:54;;;;;;;3.70;2.72;;;10.80;94.20;;;;;;5039686;28;20693;-87
2023/10/15 11:09:22;;;;;;;6.22;3.28;;;10.80;94.20;;;;;;5033493;28;20217;-87
2023/10/15 11:11:51;;;;;;;2.83;1.60;;;10.70;94.20;;;;;;5050421;28;20565;-87
2023/10/15 11:14:22;;;;;;;5.90;3.63;;;10.90;93.00;;;;;;5036105;28;20297;-87
2023/10/15 11:16:50;;;;;;;5.95;4.20;;;11.00;93.10;;;;;;5019457;28;20252;-87
2023/10/15 11:19:19;;;;;;;2.20;1.83;;;11.10;93.30;;;;;;5052642;28;20225;-87
2023/10/15 11:21:47;;;;;;;4.53;3.22;;;11.20;92.40;;;;;;5037011;28;20206;-86
2023/10/15 11:24:14;;;;;;;3.17;1.55;;;11.00;93.40;;;;;;5035625;28;20198;-87
2023/10/15 11:26:42;;;;;;;3.10;1.92;;;10.80;92.10;;;;;;5053050;28;20221;-86
2023/10/15 11:29:10;;;;;;;6.70;3.85;;;10.50;92.90;;;;;;5048082;28;20198;-86
2023/10/15 11:31:37;;;;;;;2.35;1.70;;;10.50;95.10;;;;;;5049497;28;20931;-87
2023/10/15 11:34:05;;;;;;;2.83;1.80;;;10.40;94.00;;;;;;5051993;28;20198;-87
2023/10/15 11:36:38;;;;;;;3.97;1.90;;;10.30;93.10;;;;;;5036438;28;20210;-87
2023/10/15 11:39:08;;;;;;;4.30;1.80;;;10.30;93.10;;;;;;5034425;28;20276;-87
2023/10/15 11:41:36;;;;;;;3.10;1.70;;;10.20;93.40;;;;;;5051457;28;20194;-87
2023/10/15 11:44:06;;;;;;;3.78;1.40;;;10.20;93.40;;;;;;5032869;28;20247;-87
2023/10/15 11:46:33;;;;;;;3.53;1.30;;;9.90;92.60;;;;;;5053384;28;20233;-86
2023/10/15 11:49:01;;;;;;;4.07;1.35;;;9.60;92.30;;;;;;5051192;28;20198;-86
2023/10/15 11:51:29;;;;;;;39.13;19.52;;;9.20;93.20;;;;;;5035492;28;20221;-86
2023/10/15 11:54:01;;;;;;;18.98;7.38;;;9.10;94.80;;;;;;5052733;28;20210;-86
2023/10/15 11:56:29;;;;;;;2.00;1.50;;;8.90;94.60;;;;;;5042163;28;20212;-86
2023/10/15 11:58:57;;;;;;;18.17;9.05;;;8.70;95.90;;;;;;5036207;28;20205;-86
2023/10/15 12:01:26;;;;;;;121.53;49.10;;;8.80;97.10;;;;;;5034497;28;20206;-86
2023/10/15 12:03:56;;;;;;;10.70;3.28;;;9.10;98.40;;;;;;5052987;28;20270;-86
2023/10/15 12:06:23;;;;;;;19.23;8.90;;;9.20;96.70;;;;;;5035364;28;20235;-87
2023/10/15 12:08:50;;;;;;;51.42;20.23;;;9.30;96.40;;;;;;5036067;28;20573;-87
2023/10/15 12:11:19;;;;;;;2.72;1.63;;;9.50;96.60;;;;;;5051152;28;20264;-86
2023/10/15 12:13:47;;;;;;;16.00;8.00;;;9.70;95.50;;;;;;5054844;28;20619;-86
2023/10/15 12:16:14;;;;;;;3.70;1.90;;;9.70;96.10;;;;;;5036028;28;20267;-87
2023/10/15 12:18:41;;;;;;;3.33;1.75;;;9.60;96.00;;;;;;5052040;28;20564;-87
2023/10/15 12:21:08;;;;;;;9.85;4.85;;;9.50;96.00;;;;;;5036272;28;20194;-87
2023/10/15 12:23:35;;;;;;;4.35;1.88;;;9.30;96.70;;;;;;5052130;28;20696;-87
2023/10/15 12:26:03;;;;;;;10.43;5.18;;;9.20;96.50;;;;;;5048909;28;20233;-87
2023/10/15 12:28:31;;;;;;;31.63;20.40;;;9.20;98.00;;;;;;5052503;28;20229;-87
2023/10/15 12:30:59;;;;;;;38.97;29.50;;;9.40;98.10;;;;;;5035090;28;20198;-86
2023/10/15 12:33:28;;;;;;;12.20;5.55;;;9.70;98.20;;;;;;5034878;28;20197;-87
2023/10/15 12:35:55;;;;;;;6.70;3.42;;;9.80;97.30;;;;;;5051069;28;20206;-86
2023/10/15 12:38:27;;;;;;;5.32;1.90;;;9.90;96.10;;;;;;5052048;28;20208;-87
2023/10/15 12:40:55;;;;;;;3.53;1.90;;;9.90;96.10;;;;;;5052983;28;20198;-87
2023/10/15 12:43:22;;;;;;;4.55;2.25;;;10.00;95.70;;;;;;5050228;28;20748;-86
2023/10/15 12:45:52;;;;;;;7.25;4.05;;;10.00;94.40;;;;;;5028765;28;20221;-85
2023/10/15 12:48:20;;;;;;;6.30;2.95;;;10.00;94.30;;;;;;5050310;28;20204;-86
2023/10/15 12:50:47;;;;;;;8.13;4.28;;;10.10;94.10;;;;;;5046858;28;20221;-85
2023/10/15 12:53:15;;;;;;;8.93;4.95;;;10.30;94.10;;;;;;5049109;28;20248;-86
2023/10/15 12:55:42;;;;;;;4.90;2.00;;;10.40;93.60;;;;;;5017456;28;20292;-86
2023/10/15 12:58:10;;;;;;;7.97;4.90;;;10.40;93.10;;;;;;5047011;28;20669;-86
2023/10/15 13:00:39;;;;;;;8.00;4.57;;;10.40;94.40;;;;;;5050176;28;20201;-87
2023/10/15 13:03:08;;;;;;;5.32;2.83;;;10.40;94.40;;;;;;5031184;28;20201;-86
2023/10/15 13:05:34;;;;;;;5.72;2.30;;;10.60;94.40;;;;;;5040098;28;20267;-86
2023/10/15 13:08:03;;;;;;;3.05;2.17;;;10.90;93.40;;;;;;5052223;28;20202;-86
2023/10/15 13:10:32;;;;;;;7.38;3.35;;;10.90;93.30;;;;;;5031761;28;20198;-87
2023/10/15 13:12:59;;;;;;;3.08;1.92;;;11.00;93.50;;;;;;5034505;28;20252;-87
2023/10/15 13:15:26;;;;;;;4.20;2.25;;;10.90;92.70;;;;;;5052031;28;20208;-87